Time;durP1;ratioP1;P1;durP2;ratioP2;P2;SDS_P1;SDS_P2;PMS_P1;PMS_P2;Temp;Humidity;BMP_temperature;BMP_pressure;BME280_temperature;BME280_humidity;BME280_pressure;Samples;Min_cycle;Max_cycle;Signal;HPM_P1;HPM_P2
2021/06/08 00:01:02;;;;;;;42.97;35.17;;;;;;;19.99;77.63;97118.41;5055332;28;20445;-67
2021/06/08 00:03:28;;;;;;;47.00;34.97;;;;;;;19.94;77.47;97117.22;5056792;28;20418;-68
2021/06/08 00:05:54;;;;;;;43.87;33.67;;;;;;;19.89;77.26;97118.91;5039477;28;20445;-67
2021/06/08 00:08:20;;;;;;;46.40;33.33;;;;;;;19.73;77.96;97121.00;5036532;28;20429;-67
2021/06/08 00:10:45;;;;;;;48.73;34.50;;;;;;;19.84;77.52;97124.00;5053025;28;20418;-66
2021/06/08 00:13:11;;;;;;;43.90;33.93;;;;;;;19.49;78.83;97120.72;5048763;28;20213;-67
2021/06/08 00:15:37;;;;;;;48.10;36.13;;;;;;;19.58;79.12;97125.78;5039882;28;20206;-67
2021/06/08 00:18:02;;;;;;;45.67;33.10;;;;;;;19.80;77.99;97127.06;5047089;28;20202;-67
2021/06/08 00:20:28;;;;;;;41.67;34.40;;;;;;;19.90;77.27;97128.50;5053895;28;20661;-67
2021/06/08 00:22:53;;;;;;;46.63;35.70;;;;;;;19.91;77.13;97124.81;5047945;28;20293;-67
2021/06/08 00:25:19;;;;;;;48.93;34.40;;;;;;;19.65;78.06;97130.03;5052633;28;20674;-67
2021/06/08 00:27:45;;;;;;;52.77;33.93;;;;;;;19.78;77.65;97121.16;5053108;28;20260;-67
2021/06/08 00:30:10;;;;;;;44.47;32.87;;;;;;;19.65;78.19;97134.53;5051847;28;20187;-66
2021/06/08 00:32:36;;;;;;;42.10;32.97;;;;;;;19.90;77.09;97125.84;5044587;28;20566;-66
2021/06/08 00:35:02;;;;;;;49.17;34.70;;;;;;;19.90;76.90;97126.66;5051371;28;20228;-66
2021/06/08 00:37:27;;;;;;;46.77;34.00;;;;;;;20.04;76.64;97123.91;5044204;28;20175;-67
2021/06/08 00:39:53;;;;;;;40.40;32.47;;;;;;;20.05;76.41;97118.38;5052362;28;20186;-67
2021/06/08 00:42:48;;;;;;;41.47;34.00;;;;;;;20.02;76.32;97118.81;5052223;28;20204;-67
2021/06/08 00:45:15;;;;;;;43.50;33.03;;;;;;;19.57;77.89;97121.47;5033253;28;20251;-67
2021/06/08 00:47:41;;;;;;;47.07;33.80;;;;;;;19.43;78.89;97116.22;5042995;28;20461;-66
2021/06/08 00:50:07;;;;;;;51.37;35.80;;;;;;;19.55;78.20;97112.91;5031395;28;20437;-67
2021/06/08 00:52:32;;;;;;;46.07;34.93;;;;;;;19.63;78.30;97110.00;5049329;28;20199;-66
2021/06/08 00:54:58;;;;;;;50.50;36.30;;;;;;;19.66;77.88;97109.56;5033183;28;20421;-65
2021/06/08 00:57:24;;;;;;;47.73;33.37;;;;;;;19.79;77.42;97114.81;5041438;28;20182;-67
2021/06/08 00:59:49;;;;;;;43.53;33.30;;;;;;;19.86;76.74;97113.97;5049889;28;20866;-67
2021/06/08 01:02:15;;;;;;;39.80;32.10;;;;;;;20.07;76.13;97120.81;5041129;28;20292;-67
2021/06/08 01:04:41;;;;;;;46.40;32.90;;;;;;;19.93;76.32;97115.59;5049377;28;20703;-66
2021/06/08 01:07:07;;;;;;;32.63;25.23;;;;;;;19.76;76.29;97119.75;5048450;28;20452;-67
2021/06/08 01:09:32;;;;;;;34.70;23.20;;;;;;;19.80;75.60;97110.31;5026935;28;20722;-66
2021/06/08 01:11:58;;;;;;;24.70;20.50;;;;;;;19.44;75.61;97107.22;5029054;28;20256;-66
2021/06/08 01:14:24;;;;;;;23.70;20.57;;;;;;;19.54;75.64;97095.31;5048926;28;20191;-67
2021/06/08 01:16:49;;;;;;;23.07;20.23;;;;;;;19.63;74.93;97096.72;5042466;28;20179;-67
2021/06/08 01:19:19;;;;;;;30.13;22.97;;;;;;;19.49;75.74;97094.13;5049258;28;20214;-67
2021/06/08 01:21:44;;;;;;;29.90;25.63;;;;;;;19.53;75.91;97093.72;5040645;28;20243;-67
2021/06/08 01:24:10;;;;;;;33.53;26.20;;;;;;;19.63;75.31;97097.53;5048939;28;20445;-67
2021/06/08 01:26:37;;;;;;;30.90;25.83;;;;;;;19.66;75.40;97093.63;5044909;28;20204;-67
2021/06/08 01:29:04;;;;;;;30.50;24.07;;;;;;;19.59;75.73;97091.03;5048408;28;20417;-66
2021/06/08 01:31:33;;;;;;;26.50;22.77;;;;;;;19.72;74.87;97087.47;5051463;28;20507;-67
2021/06/08 01:33:59;;;;;;;30.53;24.60;;;;;;;19.72;75.07;97084.81;5049957;28;20428;-66
2021/06/08 01:36:27;;;;;;;26.33;22.20;;;;;;;19.73;74.85;97082.94;5051659;28;20410;-66
2021/06/08 01:38:53;;;;;;;27.67;24.60;;;;;;;19.41;75.85;97089.03;5051575;28;20261;-67
2021/06/08 01:41:24;;;;;;;25.70;22.60;;;;;;;19.42;75.98;97087.22;5051639;28;20449;-67
2021/06/08 01:43:50;;;;;;;32.27;25.00;;;;;;;19.39;76.74;97092.94;5051620;28;20177;-67
2021/06/08 01:46:18;;;;;;;31.03;26.10;;;;;;;19.22;77.66;97095.28;5045089;28;20529;-67
2021/06/08 01:48:44;;;;;;;31.63;23.90;;;;;;;19.15;77.73;97098.75;5051921;28;20499;-67
2021/06/08 01:51:39;;;;;;;29.83;24.00;;;;;;;19.22;77.61;97095.28;5051777;28;20477;-67
2021/06/08 01:54:08;;;;;;;33.30;26.27;;;;;;;19.32;77.18;97093.81;5051964;28;20665;-67
2021/06/08 01:56:36;;;;;;;34.10;23.73;;;;;;;19.22;77.40;97097.94;5051128;28;20413;-66
2021/06/08 01:59:20;;;;;;;32.37;26.23;;;;;;;19.20;77.34;97095.50;5051895;28;20457;-68
2021/06/08 02:02:16;;;;;;;37.93;26.87;;;;;;;18.91;79.49;97097.59;5044132;28;20457;-67
2021/06/08 02:04:45;;;;;;;33.83;27.50;;;;;;;18.97;79.20;97093.31;5047772;28;20417;-67
2021/06/08 02:07:24;;;;;;;41.23;27.77;;;;;;;19.11;78.80;97092.25;5032285;28;20816;-67
2021/06/08 02:09:57;;;;;;;36.93;28.17;;;;;;;19.05;79.03;97102.91;5032349;28;20445;-67
2021/06/08 02:12:23;;;;;;;35.83;27.80;;;;;;;19.08;79.16;97097.16;5048587;28;20874;-67
2021/06/08 02:15:05;;;;;;;35.87;28.47;;;;;;;19.01;79.48;97107.81;5048435;28;20479;-67
2021/06/08 02:17:43;;;;;;;41.10;29.43;;;;;;;19.19;78.23;97094.66;5033836;28;20179;-67
2021/06/08 02:20:15;;;;;;;36.33;28.33;;;;;;;19.39;77.61;97099.09;5032040;28;20421;-67
2021/06/08 02:22:44;;;;;;;37.90;28.80;;;;;;;19.57;76.68;97105.53;5043907;28;20456;-67
2021/06/08 02:25:11;;;;;;;38.00;30.50;;;;;;;19.51;76.38;97101.88;5048363;28;20512;-68
2021/06/08 02:27:36;;;;;;;41.00;30.40;;;;;;;19.49;76.53;97107.41;5031874;28;20464;-67
2021/06/08 02:30:03;;;;;;;36.70;29.50;;;;;;;19.74;75.63;97108.50;5039292;28;20431;-67
2021/06/08 02:32:30;;;;;;;35.70;30.40;;;;;;;19.67;75.74;97105.88;5048367;28;20233;-68
2021/06/08 02:34:58;;;;;;;37.47;30.70;;;;;;;19.65;75.69;97102.66;5023362;28;20417;-67
2021/06/08 02:37:24;;;;;;;40.57;31.13;;;;;;;19.29;77.48;97104.03;5026823;28;20463;-66
2021/06/08 02:39:50;;;;;;;41.47;33.07;;;;;;;18.96;78.64;97107.59;5035331;28;20412;-65
2021/06/08 02:42:18;;;;;;;48.40;36.40;;;;;;;18.94;79.42;97112.31;5035450;28;20445;-65
2021/06/08 02:44:44;;;;;;;78.70;39.60;;;;;;;19.05;78.86;97111.66;5053144;28;20175;-67
2021/06/08 02:47:11;;;;;;;69.63;39.30;;;;;;;19.07;78.59;97114.94;5050522;28;20483;-66
2021/06/08 02:49:37;;;;;;;110.87;47.27;;;;;;;18.92;79.73;97104.53;5053217;28;20454;-66
2021/06/08 02:52:03;;;;;;;80.83;41.90;;;;;;;19.22;79.00;97108.56;5054234;28;20495;-66
2021/06/08 02:54:29;;;;;;;107.10;47.10;;;;;;;19.28;78.01;97102.41;5054502;28;20509;-66
2021/06/08 02:56:56;;;;;;;95.37;44.07;;;;;;;19.26;78.62;97107.91;5052485;28;20429;-66
2021/06/08 02:59:21;;;;;;;81.53;42.13;;;;;;;19.11;79.24;97116.16;5053397;28;20171;-66
2021/06/08 03:01:53;;;;;;;50.73;37.60;;;;;;;19.31;78.57;97108.13;5053546;28;20537;-67
2021/06/08 03:04:21;;;;;;;53.23;35.43;;;;;;;19.31;78.35;97109.94;5052864;28;20420;-67
2021/06/08 03:06:53;;;;;;;59.70;38.07;;;;;;;19.01;80.04;97113.91;5044312;28;20536;-67
2021/06/08 03:09:24;;;;;;;53.07;37.60;;;;;;;19.07;79.75;97112.28;5054483;28;20446;-67
2021/06/08 03:11:51;;;;;;;53.10;36.70;;;;;;;19.21;79.20;97120.19;5053288;28;20430;-67
2021/06/08 03:14:18;;;;;;;54.23;37.37;;;;;;;18.99;80.46;97113.31;5051225;28;20413;-66
2021/06/08 03:17:10;;;;;;;53.77;37.63;;;;;;;18.91;80.63;97118.81;5040979;28;20422;-67
2021/06/08 03:19:38;;;;;;;53.77;39.00;;;;;;;18.99;81.09;97113.31;5052070;28;20930;-67
2021/06/08 03:22:08;;;;;;;62.97;40.17;;;;;;;18.93;81.41;97114.13;5047549;28;20599;-66
2021/06/08 03:24:36;;;;;;;55.20;39.27;;;;;;;18.98;80.95;97113.53;5052578;28;20441;-67
2021/06/08 03:27:02;;;;;;;63.80;41.83;;;;;;;18.86;81.78;97108.84;5045442;28;20905;-66
2021/06/08 03:29:31;;;;;;;63.63;42.70;;;;;;;18.68;82.84;97113.97;5055643;28;20425;-68
2021/06/08 03:31:57;;;;;;;73.83;42.17;;;;;;;18.87;82.15;97114.94;5065108;28;20441;-67
2021/06/08 03:34:33;;;;;;;77.80;45.50;;;;;;;18.79;83.01;97118.63;5036173;28;20460;-67
2021/06/08 03:37:00;;;;;;;86.77;47.70;;;;;;;18.60;83.48;97108.88;5020434;28;20637;-67
2021/06/08 03:39:27;;;;;;;72.97;45.97;;;;;;;18.73;83.83;97114.16;5054878;28;20425;-65
2021/06/08 03:41:53;;;;;;;77.17;46.53;;;;;;;18.85;82.64;97112.50;5052917;28;20453;-66
2021/06/08 03:44:20;;;;;;;75.10;45.50;;;;;;;18.76;83.05;97116.41;5061746;28;20421;-67
2021/06/08 03:46:50;;;;;;;76.53;46.43;;;;;;;18.93;82.15;97115.94;5065073;28;20214;-67
2021/06/08 03:49:18;;;;;;;76.53;44.47;;;;;;;18.81;82.71;97108.63;5064322;28;20426;-67
2021/06/08 03:51:44;;;;;;;74.07;47.07;;;;;;;18.96;82.03;97115.56;5054657;28;20848;-68
2021/06/08 03:54:10;;;;;;;74.43;45.80;;;;;;;18.78;82.54;97116.19;5052999;28;20418;-65
2021/06/08 03:56:37;;;;;;;68.43;44.70;;;;;;;18.75;83.73;97117.44;5053899;28;20561;-66
2021/06/08 03:59:03;;;;;;;71.10;45.00;;;;;;;18.68;83.60;97121.91;5053642;28;20418;-66
2021/06/08 04:01:32;;;;;;;70.23;45.20;;;;;;;18.92;82.92;97120.47;5053382;28;20449;-67
2021/06/08 04:03:58;;;;;;;75.80;46.17;;;;;;;18.78;83.09;97122.31;5052077;28;20483;-65
2021/06/08 04:06:24;;;;;;;69.20;43.37;;;;;;;19.15;81.23;97124.50;5048848;28;20511;-67
2021/06/08 04:08:49;;;;;;;68.27;44.93;;;;;;;18.91;82.31;97121.47;5044571;28;20971;-66
2021/06/08 04:11:19;;;;;;;70.10;43.43;;;;;;;18.70;83.32;97123.38;5050329;28;20631;-67
2021/06/08 04:13:45;;;;;;;63.73;42.27;;;;;;;18.74;83.73;97126.41;5051950;28;20230;-66
2021/06/08 04:16:10;;;;;;;67.37;42.17;;;;;;;18.88;82.27;97130.69;5034758;28;20450;-67
2021/06/08 04:18:36;;;;;;;60.13;40.90;;;;;;;19.12;81.44;97138.19;5052819;28;20215;-66
2021/06/08 04:21:03;;;;;;;62.40;42.13;;;;;;;19.25;80.62;97140.81;5047857;28;20524;-67
2021/06/08 04:23:29;;;;;;;67.07;42.70;;;;;;;19.30;80.14;97137.53;5052644;28;21011;-66
2021/06/08 04:25:55;;;;;;;57.97;40.40;;;;;;;19.03;80.97;97137.59;5052582;28;20442;-67
2021/06/08 04:28:22;;;;;;;62.57;42.10;;;;;;;18.85;81.61;97140.88;5052452;28;20447;-68
2021/06/08 04:30:49;;;;;;;59.90;39.20;;;;;;;19.16;80.77;97148.19;5045963;28;20476;-68
2021/06/08 04:33:20;;;;;;;55.30;39.53;;;;;;;19.06;80.97;97147.81;5049903;28;20576;-66
2021/06/08 04:35:46;;;;;;;56.10;38.37;;;;;;;19.32;79.97;97144.28;5051572;28;20421;-67
2021/06/08 04:38:14;;;;;;;56.80;38.97;;;;;;;19.07;80.90;97144.13;5049481;28;20450;-67
2021/06/08 04:40:42;;;;;;;60.00;41.20;;;;;;;19.25;80.29;97150.66;5052225;28;20425;-67
2021/06/08 04:43:08;;;;;;;53.53;38.90;;;;;;;19.19;80.72;97152.28;5052056;28;20558;-66
2021/06/08 04:45:33;;;;;;;53.90;37.70;;;;;;;19.33;79.79;97145.91;5050816;28;20455;-65
2021/06/08 04:47:59;;;;;;;60.00;41.13;;;;;;;19.04;81.19;97149.84;5052470;28;20183;-66
2021/06/08 04:50:24;;;;;;;53.43;37.87;;;;;;;19.16;80.67;97148.19;5035236;28;20258;-67
2021/06/08 04:52:56;;;;;;;53.70;38.47;;;;;;;18.91;81.57;97137.41;5051933;28;20206;-67
2021/06/08 04:55:23;;;;;;;59.33;39.53;;;;;;;19.14;80.81;97142.31;5050626;28;20638;-67
2021/06/08 04:57:50;;;;;;;59.40;40.83;;;;;;;19.15;80.88;97143.91;5049208;28;20417;-66
2021/06/08 05:00:16;;;;;;;55.17;40.10;;;;;;;19.09;81.27;97141.28;5052140;28;20414;-65
2021/06/08 05:02:49;;;;;;;55.10;40.90;;;;;;;19.04;81.20;97141.91;5050676;28;20528;-67
2021/06/08 05:05:23;;;;;;;54.90;38.50;;;;;;;19.17;80.46;97141.06;5050338;28;20942;-68
2021/06/08 05:08:06;;;;;;;52.73;36.80;;;;;;;19.26;79.86;97144.31;5040748;28;20466;-69
2021/06/08 05:10:36;;;;;;;54.13;38.07;;;;;;;19.15;80.67;97138.59;5037678;28;20429;-67
2021/06/08 05:13:02;;;;;;;58.40;38.87;;;;;;;19.30;79.69;97148.16;5051168;28;20912;-68
2021/06/08 05:15:28;;;;;;;56.93;41.57;;;;;;;19.56;78.91;97138.44;5039761;28;20474;-67
2021/06/08 05:17:55;;;;;;;57.00;37.80;;;;;;;19.71;78.18;97144.31;5051781;28;20179;-67
2021/06/08 05:20:21;;;;;;;53.07;38.20;;;;;;;19.15;80.06;97146.56;5051862;28;20417;-67
2021/06/08 05:22:49;;;;;;;48.20;36.83;;;;;;;19.30;79.88;97142.84;5046338;28;20442;-67
2021/06/08 05:25:14;;;;;;;56.17;39.40;;;;;;;19.29;79.91;97149.19;5044728;28;20964;-67
2021/06/08 05:27:40;;;;;;;49.67;36.17;;;;;;;19.40;79.06;97147.72;5027375;28;20589;-67
2021/06/08 05:30:08;;;;;;;51.10;37.97;;;;;;;19.31;79.52;97157.75;5046754;28;20187;-66
2021/06/08 05:32:33;;;;;;;54.33;39.60;;;;;;;19.47;78.53;97159.13;5051437;28;20726;-67
2021/06/08 05:34:59;;;;;;;60.93;38.47;;;;;;;19.42;78.87;97162.41;5044745;28;20484;-67
2021/06/08 05:37:25;;;;;;;49.93;38.10;;;;;;;19.49;78.18;97157.91;5044719;28;20167;-67
2021/06/08 05:39:50;;;;;;;49.97;37.00;;;;;;;19.31;79.52;97160.41;5046950;28;20203;-67
2021/06/08 05:42:19;;;;;;;53.27;37.30;;;;;;;19.48;78.69;97150.13;5051977;28;20210;-66
2021/06/08 05:44:46;;;;;;;51.33;36.93;;;;;;;19.27;79.57;97160.03;5052679;28;20171;-67
2021/06/08 05:47:11;;;;;;;50.20;38.10;;;;;;;19.39;78.56;97159.38;5044962;28;20457;-67
2021/06/08 05:49:39;;;;;;;47.47;38.00;;;;;;;19.34;79.34;97165.31;5053814;28;20478;-67
2021/06/08 05:52:06;;;;;;;50.97;37.40;;;;;;;19.44;78.77;97168.34;5052725;28;20198;-67
2021/06/08 05:54:32;;;;;;;52.57;35.43;;;;;;;19.58;77.84;97163.81;5045751;28;20426;-67
2021/06/08 05:56:58;;;;;;;49.47;37.57;;;;;;;19.43;78.52;97169.38;5030168;28;20537;-66
2021/06/08 05:59:24;;;;;;;50.87;35.77;;;;;;;19.24;79.26;97170.25;5050550;28;20316;-67
2021/06/08 06:01:50;;;;;;;54.53;37.90;;;;;;;19.12;79.76;97168.25;5051385;28;20469;-67
2021/06/08 06:04:16;;;;;;;52.67;37.17;;;;;;;19.19;80.02;97170.88;5040831;28;20427;-67
2021/06/08 06:06:46;;;;;;;51.73;38.40;;;;;;;19.52;78.30;97161.19;5050542;28;20540;-67
2021/06/08 06:09:12;;;;;;;51.77;38.80;;;;;;;19.45;78.32;97167.31;5051666;28;20429;-67
2021/06/08 06:11:42;;;;;;;53.53;38.03;;;;;;;19.21;79.63;97176.81;5054699;28;20461;-67
2021/06/08 06:14:08;;;;;;;52.17;38.00;;;;;;;19.25;79.58;97174.56;5053936;28;20505;-67
2021/06/08 06:16:39;;;;;;;52.13;38.40;;;;;;;19.26;79.41;97173.53;5055522;28;20540;-66
2021/06/08 06:19:06;;;;;;;52.90;39.83;;;;;;;19.08;80.19;97161.72;5035538;28;20192;-65
2021/06/08 06:21:32;;;;;;;56.40;39.87;;;;;;;19.15;80.28;97170.47;5030173;28;20446;-66
2021/06/08 06:24:00;;;;;;;55.93;39.57;;;;;;;19.46;78.62;97166.31;5042904;28;20963;-66
2021/06/08 06:26:26;;;;;;;57.03;38.17;;;;;;;19.53;77.54;97162.81;5045844;28;20533;-68
2021/06/08 06:28:52;;;;;;;51.37;36.67;;;;;;;19.37;78.73;97170.22;5049839;28;20844;-67
2021/06/08 06:31:18;;;;;;;50.70;36.80;;;;;;;19.16;79.49;97169.44;5054102;28;20602;-67
2021/06/08 06:33:50;;;;;;;55.80;39.03;;;;;;;19.33;79.17;97174.31;5044778;28;20433;-67
2021/06/08 06:36:17;;;;;;;50.57;37.87;;;;;;;19.16;79.41;97169.44;5055081;28;20202;-65
2021/06/08 06:38:49;;;;;;;52.40;38.27;;;;;;;19.15;80.26;97165.16;5044735;28;20950;-66
2021/06/08 06:41:16;;;;;;;65.73;40.97;;;;;;;19.14;80.10;97174.19;5053273;28;20985;-65
2021/06/08 06:43:53;;;;;;;62.13;39.50;;;;;;;19.27;79.36;97180.47;5046087;28;20475;-67
2021/06/08 06:46:19;;;;;;;53.27;39.50;;;;;;;19.26;79.17;97173.53;5046123;28;20519;-67
2021/06/08 06:48:45;;;;;;;59.13;40.50;;;;;;;19.29;79.06;97179.22;5053614;28;20422;-65
2021/06/08 06:51:12;;;;;;;54.00;39.83;;;;;;;19.18;80.01;97183.34;5053320;28;20242;-65
2021/06/08 06:53:39;;;;;;;56.87;37.40;;;;;;;19.27;79.34;97181.28;5027489;28;20470;-66
2021/06/08 06:56:06;;;;;;;55.57;39.03;;;;;;;19.04;80.63;97181.72;5025882;28;20430;-66
2021/06/08 06:58:32;;;;;;;58.30;38.80;;;;;;;19.18;79.76;97188.66;5054552;28;20425;-66
2021/06/08 07:00:58;;;;;;;59.87;40.27;;;;;;;19.21;79.35;97186.59;5034189;28;20544;-68
2021/06/08 07:03:28;;;;;;;56.93;39.80;;;;;;;19.21;78.81;97186.59;5051794;28;20443;-67
2021/06/08 07:05:54;;;;;;;60.70;38.90;;;;;;;19.32;78.72;97188.63;5054500;28;20561;-67
2021/06/08 07:08:23;;;;;;;56.13;38.83;;;;;;;19.43;78.67;97189.81;5038305;28;20441;-67
2021/06/08 07:10:50;;;;;;;50.43;37.03;;;;;;;19.59;77.75;97183.22;5038996;28;20730;-66
2021/06/08 07:13:16;;;;;;;53.50;37.83;;;;;;;19.44;78.15;97186.94;5051611;28;20511;-67
2021/06/08 07:15:43;;;;;;;56.73;37.20;;;;;;;19.59;76.55;97186.72;5045207;28;20471;-67
2021/06/08 07:18:10;;;;;;;51.63;36.13;;;;;;;20.17;75.20;97186.84;5053036;28;20183;-67
2021/06/08 07:20:36;;;;;;;51.07;36.17;;;;;;;20.22;73.98;97187.84;5052113;28;20944;-66
2021/06/08 07:23:02;;;;;;;48.00;35.73;;;;;;;19.91;74.97;97186.00;5041392;28;20458;-64
2021/06/08 07:25:34;;;;;;;49.20;35.57;;;;;;;19.70;75.97;97187.88;5052352;28;20459;-66
2021/06/08 07:27:59;;;;;;;47.97;34.07;;;;;;;19.67;75.92;97193.59;5053995;28;20207;-66
2021/06/08 07:30:25;;;;;;;54.23;36.07;;;;;;;19.49;76.54;97186.31;5052413;28;20430;-67
2021/06/08 07:33:00;;;;;;;59.30;37.80;;;;;;;19.16;77.60;97193.34;5038060;28;20198;-67
2021/06/08 07:35:38;;;;;;;47.33;34.83;;;;;;;19.54;76.79;97191.00;5037377;28;20182;-66
2021/06/08 07:38:08;;;;;;;53.83;38.20;;;;;;;19.75;75.73;97188.06;5045200;28;20903;-67
2021/06/08 07:40:39;;;;;;;56.97;36.13;;;;;;;19.90;75.23;97184.34;5044522;28;20532;-68
2021/06/08 07:43:09;;;;;;;67.23;39.00;;;;;;;20.23;73.85;97189.44;5045012;28;20422;-66
2021/06/08 07:45:41;;;;;;;51.70;35.57;;;;;;;19.93;74.39;97189.22;5061056;28;20417;-66
2021/06/08 07:48:10;;;;;;;44.13;35.17;;;;;;;19.77;75.08;97191.34;5056171;28;20836;-67
2021/06/08 07:50:40;;;;;;;64.83;38.17;;;;;;;20.00;74.73;97190.03;5043823;28;20434;-68
2021/06/08 07:53:06;;;;;;;98.27;46.87;;;;;;;20.04;73.76;97195.72;5057752;28;20908;-66
2021/06/08 07:55:35;;;;;;;53.73;37.00;;;;;;;19.89;74.50;97185.38;5056853;28;20930;-67
2021/06/08 07:58:00;;;;;;;44.73;35.07;;;;;;;19.80;74.46;97179.44;5038157;28;20920;-67
2021/06/08 08:00:26;;;;;;;52.23;35.27;;;;;;;20.23;73.37;97188.66;5062529;28;20506;-67
2021/06/08 08:02:55;;;;;;;64.13;38.23;;;;;;;20.08;74.73;97186.28;5061882;28;20365;-68
2021/06/08 08:05:22;;;;;;;53.20;35.53;;;;;;;19.87;74.44;97190.09;5062148;28;20653;-67
2021/06/08 08:07:49;;;;;;;93.50;42.37;;;;;;;20.21;73.15;97190.72;5045365;28;20572;-67
2021/06/08 08:10:15;;;;;;;43.73;34.80;;;;;;;20.08;73.06;97192.41;5043487;28;20446;-68
2021/06/08 08:12:42;;;;;;;53.43;33.53;;;;;;;20.32;72.45;97191.88;5052456;28;20434;-66
2021/06/08 08:15:09;;;;;;;43.60;33.30;;;;;;;20.31;72.08;97195.56;5052335;28;20418;-68
2021/06/08 08:17:36;;;;;;;47.03;35.10;;;;;;;19.95;73.62;97197.81;5052365;28;20430;-67
2021/06/08 08:20:07;;;;;;;45.93;34.90;;;;;;;20.16;72.80;97198.53;5045074;28;20828;-70
2021/06/08 08:22:33;;;;;;;55.17;34.30;;;;;;;19.97;73.68;97193.09;5049436;28;20809;-67
2021/06/08 08:24:59;;;;;;;46.50;34.30;;;;;;;19.96;73.90;97204.75;5051907;28;20451;-67
2021/06/08 08:27:26;;;;;;;46.17;33.80;;;;;;;19.89;73.05;97194.16;5036828;28;20453;-67
2021/06/08 08:29:51;;;;;;;48.90;33.80;;;;;;;19.98;73.06;97200.06;5053359;28;20271;-67
2021/06/08 08:32:18;;;;;;;43.23;34.60;;;;;;;19.97;72.64;97201.06;5052603;28;20478;-68
2021/06/08 08:34:44;;;;;;;46.77;34.50;;;;;;;20.49;70.95;97202.81;5050394;28;20262;-68
2021/06/08 08:37:10;;;;;;;43.77;32.93;;;;;;;19.83;73.37;97207.44;5044916;28;20536;-68
2021/06/08 08:39:36;;;;;;;49.67;35.50;;;;;;;20.52;71.44;97207.72;5051658;28;20425;-67
2021/06/08 08:42:01;;;;;;;41.90;32.80;;;;;;;20.58;70.53;97209.50;5052483;28;20233;-67
2021/06/08 08:44:27;;;;;;;45.77;32.33;;;;;;;20.91;69.44;97204.97;5052893;28;20185;-67
2021/06/08 08:46:53;;;;;;;51.40;34.33;;;;;;;20.91;69.12;97211.13;5053130;28;20199;-68
2021/06/08 08:49:18;;;;;;;43.60;31.50;;;;;;;21.21;67.85;97215.72;5033366;28;20265;-67
2021/06/08 08:51:48;;;;;;;40.83;32.37;;;;;;;20.91;68.78;97213.78;5051826;28;20783;-67
2021/06/08 08:54:13;;;;;;;49.53;36.70;;;;;;;20.89;69.56;97218.50;5052347;28;20225;-67
2021/06/08 08:56:40;;;;;;;48.73;34.40;;;;;;;21.14;68.15;97217.66;5047751;28;20468;-67
2021/06/08 08:59:08;;;;;;;44.93;32.47;;;;;;;21.39;67.56;97206.13;5050058;28;20179;-67
2021/06/08 09:01:35;;;;;;;40.00;31.60;;;;;;;21.60;66.91;97208.38;5052589;28;20473;-67
2021/06/08 09:04:03;;;;;;;44.30;32.50;;;;;;;21.97;65.47;97212.88;5051742;28;20504;-68
2021/06/08 09:06:29;;;;;;;40.30;31.67;;;;;;;22.01;65.14;97224.69;5051896;28;21002;-67
2021/06/08 09:08:55;;;;;;;37.00;31.70;;;;;;;22.02;64.49;97209.50;5041069;28;20422;-68
2021/06/08 09:11:21;;;;;;;37.90;31.90;;;;;;;22.09;64.38;97210.22;5049236;28;20616;-67
2021/06/08 09:13:46;;;;;;;38.00;32.10;;;;;;;22.23;63.39;97213.53;5044056;28;20197;-68
2021/06/08 09:16:15;;;;;;;40.50;31.17;;;;;;;22.24;63.80;97213.31;5052060;28;20187;-68
2021/06/08 09:18:40;;;;;;;38.43;30.77;;;;;;;22.11;63.50;97213.50;5052336;28;20183;-69
2021/06/08 09:21:15;;;;;;;43.50;32.60;;;;;;;22.28;63.32;97202.19;5046800;28;20953;-67
2021/06/08 09:23:41;;;;;;;41.50;32.40;;;;;;;22.49;62.58;97208.88;5052161;28;20174;-67
2021/06/08 09:26:07;;;;;;;42.20;29.80;;;;;;;22.52;61.89;97225.25;5049094;28;20804;-67
2021/06/08 09:28:34;;;;;;;40.70;32.50;;;;;;;22.23;63.39;97211.66;5037791;28;20175;-67
2021/06/08 09:31:12;;;;;;;41.60;32.33;;;;;;;22.18;63.77;97214.19;5042766;28;20509;-67
2021/06/08 09:33:40;;;;;;;48.63;31.13;;;;;;;22.18;63.84;97210.72;5051843;28;20417;-71
2021/06/08 09:36:14;;;;;;;38.40;30.73;;;;;;;22.36;63.37;97216.03;5043025;28;20449;-67
2021/06/08 09:38:56;;;;;;;43.03;31.17;;;;;;;22.55;62.44;97213.28;5052477;28;20426;-67
2021/06/08 09:41:58;;;;;;;37.30;30.77;;;;;;;22.59;62.82;97218.97;5051257;28;20583;-68
2021/06/08 09:44:23;;;;;;;36.27;29.47;;;;;;;22.83;61.50;97214.50;5050260;28;20483;-66
2021/06/08 09:46:55;;;;;;;38.30;31.07;;;;;;;22.91;61.34;97216.81;5051208;28;20449;-67
2021/06/08 09:49:34;;;;;;;36.53;30.50;;;;;;;23.06;60.79;97215.56;5042296;28;20256;-67
2021/06/08 09:52:02;;;;;;;36.03;31.80;;;;;;;22.36;63.18;97209.84;5051467;28;20536;-67
2021/06/08 09:54:33;;;;;;;40.40;31.40;;;;;;;22.69;62.50;97205.88;5043294;28;20513;-68
2021/06/08 09:57:22;;;;;;;40.70;32.47;;;;;;;21.98;64.63;97205.66;5051681;28;20425;-68
2021/06/08 09:59:59;;;;;;;38.13;32.33;;;;;;;22.53;62.70;97212.69;5045294;28;20410;-67
2021/06/08 10:03:00;;;;;;;36.80;31.93;;;;;;;22.04;64.15;97202.91;5035051;28;20467;-66
2021/06/08 10:05:31;;;;;;;40.30;32.03;;;;;;;21.83;65.06;97217.53;5050226;28;20425;-66
2021/06/08 10:07:59;;;;;;;40.17;32.70;;;;;;;21.66;65.79;97205.88;5050564;28;21021;-68
2021/06/08 10:10:27;;;;;;;40.10;33.37;;;;;;;22.03;64.53;97211.16;5035798;28;20414;-66
2021/06/08 10:13:04;;;;;;;40.00;33.03;;;;;;;22.65;62.38;97210.88;5053195;28;20445;-67
2021/06/08 10:15:49;;;;;;;83.73;34.03;;;;;;;22.77;61.67;97216.25;5032012;28;20479;-66
2021/06/08 10:18:15;;;;;;;41.90;32.40;;;;;;;23.12;60.33;97219.97;5048610;28;20429;-66
2021/06/08 10:20:56;;;;;;;54.73;31.57;;;;;;;23.57;59.57;97210.50;5044761;28;20471;-68
2021/06/08 10:23:30;;;;;;;32.50;28.03;;;;;;;23.31;58.90;97218.81;5050807;28;20171;-68
2021/06/08 10:26:00;;;;;;;35.20;30.33;;;;;;;23.34;59.18;97220.22;5052215;28;20417;-69
2021/06/08 10:28:27;;;;;;;39.53;29.40;;;;;;;23.13;59.09;97219.72;5036338;28;20437;-66
2021/06/08 10:30:54;;;;;;;32.93;29.20;;;;;;;23.34;58.89;97220.22;5051729;28;20434;-67
2021/06/08 10:33:23;;;;;;;30.13;26.90;;;;;;;22.78;58.91;97217.03;5051303;28;20434;-67
2021/06/08 10:35:50;;;;;;;33.10;28.73;;;;;;;22.94;58.86;97216.38;5050314;28;20443;-67
2021/06/08 10:38:16;;;;;;;31.53;28.27;;;;;;;23.03;58.69;97219.50;5050243;28;20421;-67
2021/06/08 10:40:45;;;;;;;30.70;27.50;;;;;;;23.27;58.34;97212.31;5046776;28;20790;-67
2021/06/08 10:43:26;;;;;;;81.93;39.20;;;;;;;23.35;58.38;97210.34;5051010;28;20436;-67
2021/06/08 10:45:55;;;;;;;52.90;33.77;;;;;;;23.95;57.11;97211.81;5033628;28;20841;-66
2021/06/08 10:48:26;;;;;;;34.10;28.77;;;;;;;23.77;57.53;97210.13;5050538;28;20445;-66
2021/06/08 10:51:18;;;;;;;32.77;29.20;;;;;;;23.75;57.32;97207.69;5051285;28;20529;-67
2021/06/08 10:53:55;;;;;;;54.53;31.60;;;;;;;23.99;56.42;97202.28;5051594;28;20473;-66
2021/06/08 10:56:35;;;;;;;41.73;29.63;;;;;;;23.82;57.10;97204.09;5051228;28;20428;-67
2021/06/08 10:59:05;;;;;;;59.30;36.27;;;;;;;23.39;57.51;97211.47;5053639;28;20425;-68
2021/06/08 11:01:34;;;;;;;32.93;28.57;;;;;;;23.10;58.52;97206.84;5047668;28;20469;-66
2021/06/08 11:04:03;;;;;;;31.53;28.13;;;;;;;22.91;59.09;97200.00;5054458;28;20924;-67
2021/06/08 11:06:51;;;;;;;38.83;27.10;;;;;;;23.14;58.23;97210.66;5054788;28;20522;-68
2021/06/08 11:09:22;;;;;;;30.83;27.30;;;;;;;23.22;57.55;97214.06;5053535;28;20770;-67
2021/06/08 11:11:57;;;;;;;30.10;27.00;;;;;;;23.20;57.68;97206.28;5055077;28;20447;-66
2021/06/08 11:14:29;;;;;;;28.60;25.57;;;;;;;23.72;56.70;97194.78;5048753;28;20787;-67
2021/06/08 11:16:59;;;;;;;28.63;25.63;;;;;;;23.84;56.19;97201.94;5039624;28;20422;-66
2021/06/08 11:19:54;;;;;;;28.40;25.40;;;;;;;24.02;56.15;97206.34;5034886;28;20427;-67
2021/06/08 11:22:22;;;;;;;26.93;24.23;;;;;;;24.41;54.57;97200.34;5049187;28;20858;-66
2021/06/08 11:24:51;;;;;;;29.80;26.80;;;;;;;23.84;55.19;97208.13;5055506;28;20425;-67